sensor_id;sensor_type;location;lat;lon;timestamp;temperature;humidity
1225;DHT22;602;48.000;7.840;2022-08-21T00:01:46;19.00;99.90
1225;DHT22;602;48.000;7.840;2022-08-21T00:04:14;18.90;99.90
1225;DHT22;602;48.000;7.840;2022-08-21T00:06:41;18.90;99.90
1225;DHT22;602;48.000;7.840;2022-08-21T00:09:08;18.80;99.90
1225;DHT22;602;48.000;7.840;2022-08-21T00:11:36;18.90;99.90
1225;DHT22;602;48.000;7.840;2022-08-21T00:14:05;18.80;99.90
1225;DHT22;602;48.000;7.840;2022-08-21T00:16:33;18.90;99.90
1225;DHT22;602;48.000;7.840;2022-08-21T00:19:00;18.90;99.90
1225;DHT22;602;48.000;7.840;2022-08-21T00:21:28;19.00;99.90
1225;DHT22;602;48.000;7.840;2022-08-21T00:23:55;19.00;99.90
1225;DHT22;602;48.000;7.840;2022-08-21T00:26:22;19.00;99.90
1225;DHT22;602;48.000;7.840;2022-08-21T00:28:49;19.10;99.90
1225;DHT22;602;48.000;7.840;2022-08-21T00:31:16;19.10;99.90
1225;DHT22;602;48.000;7.840;2022-08-21T00:33:44;19.10;99.90
1225;DHT22;602;48.000;7.840;2022-08-21T00:36:12;19.00;99.90
1225;DHT22;602;48.000;7.840;2022-08-21T00:38:40;18.90;99.90
1225;DHT22;602;48.000;7.840;2022-08-21T00:41:09;18.80;99.90
1225;DHT22;602;48.000;7.840;2022-08-21T00:43:37;18.80;99.90
1225;DHT22;602;48.000;7.840;2022-08-21T00:46:05;18.80;99.90
1225;DHT22;602;48.000;7.840;2022-08-21T00:48:33;18.90;99.90
1225;DHT22;602;48.000;7.840;2022-08-21T00:51:03;18.90;99.90
1225;DHT22;602;48.000;7.840;2022-08-21T00:53:33;18.90;99.90
1225;DHT22;602;48.000;7.840;2022-08-21T00:56:03;18.90;99.90
1225;DHT22;602;48.000;7.840;2022-08-21T00:58:31;18.80;99.90
1225;DHT22;602;48.000;7.840;2022-08-21T01:01:02;18.70;99.90
1225;DHT22;602;48.000;7.840;2022-08-21T01:03:30;18.70;99.90
1225;DHT22;602;48.000;7.840;2022-08-21T01:05:57;18.60;99.90
1225;DHT22;602;48.000;7.840;2022-08-21T01:08:24;18.60;99.90
1225;DHT22;602;48.000;7.840;2022-08-21T01:10:52;18.60;99.90
1225;DHT22;602;48.000;7.840;2022-08-21T01:13:21;18.60;99.90
1225;DHT22;602;48.000;7.840;2022-08-21T01:15:51;18.60;99.90
1225;DHT22;602;48.000;7.840;2022-08-21T01:18:20;18.70;99.90
1225;DHT22;602;48.000;7.840;2022-08-21T01:21:00;18.70;99.90
1225;DHT22;602;48.000;7.840;2022-08-21T01:23:27;18.70;99.90
1225;DHT22;602;48.000;7.840;2022-08-21T01:25:54;18.70;99.90
1225;DHT22;602;48.000;7.840;2022-08-21T01:28:22;18.60;99.90
1225;DHT22;602;48.000;7.840;2022-08-21T01:30:51;18.60;99.90
1225;DHT22;602;48.000;7.840;2022-08-21T01:33:18;18.70;99.90
1225;DHT22;602;48.000;7.840;2022-08-21T01:35:46;18.70;99.90
1225;DHT22;602;48.000;7.840;2022-08-21T01:38:14;18.80;99.90
1225;DHT22;602;48.000;7.840;2022-08-21T01:40:41;18.80;99.90
1225;DHT22;602;48.000;7.840;2022-08-21T01:43:08;18.90;99.90
1225;DHT22;602;48.000;7.840;2022-08-21T01:45:35;19.00;99.90
1225;DHT22;602;48.000;7.840;2022-08-21T01:48:02;19.00;99.90
1225;DHT22;602;48.000;7.840;2022-08-21T01:50:29;19.10;99.90
1225;DHT22;602;48.000;7.840;2022-08-21T01:52:57;19.10;99.90
1225;DHT22;602;48.000;7.840;2022-08-21T01:55:26;19.10;99.90
1225;DHT22;602;48.000;7.840;2022-08-21T01:57:53;19.10;99.90
1225;DHT22;602;48.000;7.840;2022-08-21T02:00:21;19.10;99.90
1225;DHT22;602;48.000;7.840;2022-08-21T02:02:49;18.90;99.90
1225;DHT22;602;48.000;7.840;2022-08-21T02:05:17;18.90;99.90
1225;DHT22;602;48.000;7.840;2022-08-21T02:07:45;18.90;99.90
1225;DHT22;602;48.000;7.840;2022-08-21T02:10:15;19.00;99.90
1225;DHT22;602;48.000;7.840;2022-08-21T02:12:44;19.00;99.90
1225;DHT22;602;48.000;7.840;2022-08-21T02:15:11;19.00;99.90
1225;DHT22;602;48.000;7.840;2022-08-21T02:17:40;18.90;99.90
1225;DHT22;602;48.000;7.840;2022-08-21T02:20:09;18.80;99.90
1225;DHT22;602;48.000;7.840;2022-08-21T02:22:36;18.70;99.90
1225;DHT22;602;48.000;7.840;2022-08-21T02:25:04;18.70;99.90
1225;DHT22;602;48.000;7.840;2022-08-21T02:27:37;18.70;99.90
1225;DHT22;602;48.000;7.840;2022-08-21T02:30:08;18.60;99.90
1225;DHT22;602;48.000;7.840;2022-08-21T02:32:36;18.60;99.90
1225;DHT22;602;48.000;7.840;2022-08-21T02:35:03;18.50;99.90
1225;DHT22;602;48.000;7.840;2022-08-21T02:37:30;18.40;99.90
1225;DHT22;602;48.000;7.840;2022-08-21T02:39:58;18.30;99.90
1225;DHT22;602;48.000;7.840;2022-08-21T02:42:25;18.30;99.90
1225;DHT22;602;48.000;7.840;2022-08-21T02:44:52;18.30;99.90
1225;DHT22;602;48.000;7.840;2022-08-21T02:47:20;18.30;99.90
1225;DHT22;602;48.000;7.840;2022-08-21T02:49:47;18.30;99.90
1225;DHT22;602;48.000;7.840;2022-08-21T02:52:14;18.40;99.90
1225;DHT22;602;48.000;7.840;2022-08-21T02:54:41;18.20;99.90
1225;DHT22;602;48.000;7.840;2022-08-21T02:57:08;18.20;99.90
1225;DHT22;602;48.000;7.840;2022-08-21T02:59:35;18.20;99.90
1225;DHT22;602;48.000;7.840;2022-08-21T03:02:02;18.00;99.90
1225;DHT22;602;48.000;7.840;2022-08-21T03:04:30;17.90;99.90
1225;DHT22;602;48.000;7.840;2022-08-21T03:06:57;17.90;99.90
1225;DHT22;602;48.000;7.840;2022-08-21T03:09:24;17.80;99.90
1225;DHT22;602;48.000;7.840;2022-08-21T03:11:51;17.70;99.90
1225;DHT22;602;48.000;7.840;2022-08-21T03:14:19;17.60;99.90
1225;DHT22;602;48.000;7.840;2022-08-21T03:16:46;17.70;99.90
1225;DHT22;602;48.000;7.840;2022-08-21T03:19:12;17.70;99.90
1225;DHT22;602;48.000;7.840;2022-08-21T03:21:41;17.70;99.90
1225;DHT22;602;48.000;7.840;2022-08-21T03:24:08;17.80;99.90
1225;DHT22;602;48.000;7.840;2022-08-21T03:26:35;17.80;99.90
1225;DHT22;602;48.000;7.840;2022-08-21T03:29:02;17.90;99.90
1225;DHT22;602;48.000;7.840;2022-08-21T03:31:29;17.80;99.90
1225;DHT22;602;48.000;7.840;2022-08-21T03:33:57;17.80;99.90
1225;DHT22;602;48.000;7.840;2022-08-21T03:36:24;17.80;99.90
1225;DHT22;602;48.000;7.840;2022-08-21T03:38:53;17.90;99.90
1225;DHT22;602;48.000;7.840;2022-08-21T03:41:20;17.90;99.90
1225;DHT22;602;48.000;7.840;2022-08-21T03:43:47;17.90;99.90
1225;DHT22;602;48.000;7.840;2022-08-21T03:46:14;17.90;99.90
1225;DHT22;602;48.000;7.840;2022-08-21T03:48:40;17.70;99.90
1225;DHT22;602;48.000;7.840;2022-08-21T03:51:08;17.80;99.90
1225;DHT22;602;48.000;7.840;2022-08-21T03:53:35;17.90;99.90
1225;DHT22;602;48.000;7.840;2022-08-21T03:56:04;17.90;99.90
1225;DHT22;602;48.000;7.840;2022-08-21T03:58:32;18.00;99.90
1225;DHT22;602;48.000;7.840;2022-08-21T04:01:00;18.10;99.90
1225;DHT22;602;48.000;7.840;2022-08-21T04:03:28;18.20;99.90
1225;DHT22;602;48.000;7.840;2022-08-21T04:05:55;18.10;99.90
1225;DHT22;602;48.000;7.840;2022-08-21T04:08:22;18.10;99.90
1225;DHT22;602;48.000;7.840;2022-08-21T04:10:51;18.00;99.90
1225;DHT22;602;48.000;7.840;2022-08-21T04:13:20;18.00;99.90
1225;DHT22;602;48.000;7.840;2022-08-21T04:15:48;18.10;99.90
1225;DHT22;602;48.000;7.840;2022-08-21T04:18:15;18.10;99.90
1225;DHT22;602;48.000;7.840;2022-08-21T04:20:44;18.10;99.90
1225;DHT22;602;48.000;7.840;2022-08-21T04:23:11;18.10;99.90
1225;DHT22;602;48.000;7.840;2022-08-21T04:25:38;18.20;99.90
1225;DHT22;602;48.000;7.840;2022-08-21T04:28:05;18.20;99.90
1225;DHT22;602;48.000;7.840;2022-08-21T04:30:33;18.20;99.90
1225;DHT22;602;48.000;7.840;2022-08-21T04:33:00;18.20;99.90
1225;DHT22;602;48.000;7.840;2022-08-21T04:35:29;18.30;99.90
1225;DHT22;602;48.000;7.840;2022-08-21T04:37:57;18.30;99.90
1225;DHT22;602;48.000;7.840;2022-08-21T04:40:26;18.20;99.90
1225;DHT22;602;48.000;7.840;2022-08-21T04:42:55;18.20;99.90
1225;DHT22;602;48.000;7.840;2022-08-21T04:45:25;18.10;99.90
1225;DHT22;602;48.000;7.840;2022-08-21T04:47:56;18.00;99.90
1225;DHT22;602;48.000;7.840;2022-08-21T04:50:28;18.00;99.90
1225;DHT22;602;48.000;7.840;2022-08-21T04:52:56;18.00;99.90
1225;DHT22;602;48.000;7.840;2022-08-21T04:55:24;18.00;99.90
1225;DHT22;602;48.000;7.840;2022-08-21T04:57:53;18.00;99.90
1225;DHT22;602;48.000;7.840;2022-08-21T05:00:21;17.90;99.90
1225;DHT22;602;48.000;7.840;2022-08-21T05:02:50;17.90;99.90
1225;DHT22;602;48.000;7.840;2022-08-21T05:05:21;17.90;99.90
1225;DHT22;602;48.000;7.840;2022-08-21T05:07:48;17.90;99.90
1225;DHT22;602;48.000;7.840;2022-08-21T05:10:15;18.00;99.90
1225;DHT22;602;48.000;7.840;2022-08-21T05:12:43;18.10;99.90
1225;DHT22;602;48.000;7.840;2022-08-21T05:15:11;18.10;99.90
1225;DHT22;602;48.000;7.840;2022-08-21T05:17:38;18.10;99.90
1225;DHT22;602;48.000;7.840;2022-08-21T05:20:05;18.20;99.90
1225;DHT22;602;48.000;7.840;2022-08-21T05:22:34;18.20;99.90
1225;DHT22;602;48.000;7.840;2022-08-21T05:25:01;18.30;99.90
1225;DHT22;602;48.000;7.840;2022-08-21T05:27:28;18.30;99.90
1225;DHT22;602;48.000;7.840;2022-08-21T05:29:55;18.20;99.90
1225;DHT22;602;48.000;7.840;2022-08-21T05:32:23;18.30;99.90
1225;DHT22;602;48.000;7.840;2022-08-21T05:34:51;18.30;99.90
1225;DHT22;602;48.000;7.840;2022-08-21T05:37:17;18.30;99.90
1225;DHT22;602;48.000;7.840;2022-08-21T05:39:46;18.30;99.90
1225;DHT22;602;48.000;7.840;2022-08-21T05:42:12;18.40;99.90
1225;DHT22;602;48.000;7.840;2022-08-21T05:44:39;18.40;99.90
1225;DHT22;602;48.000;7.840;2022-08-21T05:47:08;18.40;99.90
1225;DHT22;602;48.000;7.840;2022-08-21T05:49:35;18.50;99.90
1225;DHT22;602;48.000;7.840;2022-08-21T05:52:03;18.40;99.90
1225;DHT22;602;48.000;7.840;2022-08-21T05:54:30;18.30;99.90
1225;DHT22;602;48.000;7.840;2022-08-21T05:56:59;18.20;99.90
1225;DHT22;602;48.000;7.840;2022-08-21T05:59:26;18.30;99.90
1225;DHT22;602;48.000;7.840;2022-08-21T06:01:53;18.40;99.90
1225;DHT22;602;48.000;7.840;2022-08-21T06:04:20;18.50;99.90
1225;DHT22;602;48.000;7.840;2022-08-21T06:06:47;18.60;99.90
1225;DHT22;602;48.000;7.840;2022-08-21T06:09:14;18.60;99.90
1225;DHT22;602;48.000;7.840;2022-08-21T06:11:41;18.70;99.90
1225;DHT22;602;48.000;7.840;2022-08-21T06:14:09;18.80;99.90
1225;DHT22;602;48.000;7.840;2022-08-21T06:16:36;18.80;99.90
1225;DHT22;602;48.000;7.840;2022-08-21T06:19:03;18.80;99.90
1225;DHT22;602;48.000;7.840;2022-08-21T06:21:30;18.80;99.90
1225;DHT22;602;48.000;7.840;2022-08-21T06:23:57;18.90;99.90
1225;DHT22;602;48.000;7.840;2022-08-21T06:26:24;19.00;99.90
1225;DHT22;602;48.000;7.840;2022-08-21T06:28:51;19.00;99.90
1225;DHT22;602;48.000;7.840;2022-08-21T06:31:21;19.20;99.90
1225;DHT22;602;48.000;7.840;2022-08-21T06:33:49;19.20;99.90
1225;DHT22;602;48.000;7.840;2022-08-21T06:36:17;19.30;99.90
1225;DHT22;602;48.000;7.840;2022-08-21T06:38:44;19.30;99.90
1225;DHT22;602;48.000;7.840;2022-08-21T06:41:11;19.40;99.90
1225;DHT22;602;48.000;7.840;2022-08-21T06:43:38;19.30;99.90
1225;DHT22;602;48.000;7.840;2022-08-21T06:46:05;19.40;99.90
1225;DHT22;602;48.000;7.840;2022-08-21T06:48:33;19.50;99.90
1225;DHT22;602;48.000;7.840;2022-08-21T06:51:01;19.60;99.90
1225;DHT22;602;48.000;7.840;2022-08-21T06:53:28;19.70;99.90
1225;DHT22;602;48.000;7.840;2022-08-21T06:55:55;19.70;99.90
1225;DHT22;602;48.000;7.840;2022-08-21T06:58:22;19.80;99.90
1225;DHT22;602;48.000;7.840;2022-08-21T07:00:50;19.80;99.90
1225;DHT22;602;48.000;7.840;2022-08-21T07:03:19;19.90;99.90
1225;DHT22;602;48.000;7.840;2022-08-21T07:05:48;20.30;99.90
1225;DHT22;602;48.000;7.840;2022-08-21T07:08:15;20.50;99.90
1225;DHT22;602;48.000;7.840;2022-08-21T07:10:43;20.60;99.90
1225;DHT22;602;48.000;7.840;2022-08-21T07:13:10;20.70;99.90
1225;DHT22;602;48.000;7.840;2022-08-21T07:15:37;20.80;99.90
1225;DHT22;602;48.000;7.840;2022-08-21T07:18:04;20.80;99.90
1225;DHT22;602;48.000;7.840;2022-08-21T07:20:31;21.00;99.90
1225;DHT22;602;48.000;7.840;2022-08-21T07:23:02;21.00;99.90
1225;DHT22;602;48.000;7.840;2022-08-21T07:25:31;21.20;99.90
1225;DHT22;602;48.000;7.840;2022-08-21T07:27:58;21.30;99.90
1225;DHT22;602;48.000;7.840;2022-08-21T07:30:25;21.30;99.90
1225;DHT22;602;48.000;7.840;2022-08-21T07:32:52;21.40;99.90
1225;DHT22;602;48.000;7.840;2022-08-21T07:35:19;21.60;99.90
1225;DHT22;602;48.000;7.840;2022-08-21T07:37:47;21.80;99.90
1225;DHT22;602;48.000;7.840;2022-08-21T07:40:15;21.90;99.90
1225;DHT22;602;48.000;7.840;2022-08-21T07:42:44;21.90;99.90
1225;DHT22;602;48.000;7.840;2022-08-21T07:45:12;22.00;99.90
1225;DHT22;602;48.000;7.840;2022-08-21T07:47:39;22.10;99.90
1225;DHT22;602;48.000;7.840;2022-08-21T07:50:07;22.10;99.90
1225;DHT22;602;48.000;7.840;2022-08-21T07:52:34;22.40;99.90
1225;DHT22;602;48.000;7.840;2022-08-21T07:55:01;22.90;99.90
1225;DHT22;602;48.000;7.840;2022-08-21T07:57:29;23.20;99.90
1225;DHT22;602;48.000;7.840;2022-08-21T07:59:56;23.40;99.90
1225;DHT22;602;48.000;7.840;2022-08-21T08:02:24;23.70;99.90
1225;DHT22;602;48.000;7.840;2022-08-21T08:04:51;24.10;99.90
1225;DHT22;602;48.000;7.840;2022-08-21T08:07:18;24.50;99.90
1225;DHT22;602;48.000;7.840;2022-08-21T08:09:45;24.70;99.90
1225;DHT22;602;48.000;7.840;2022-08-21T08:12:12;25.10;99.90
1225;DHT22;602;48.000;7.840;2022-08-21T08:14:40;25.30;99.90
1225;DHT22;602;48.000;7.840;2022-08-21T08:17:07;25.40;99.90
1225;DHT22;602;48.000;7.840;2022-08-21T08:19:34;25.70;99.90
1225;DHT22;602;48.000;7.840;2022-08-21T08:22:01;26.00;99.90
1225;DHT22;602;48.000;7.840;2022-08-21T08:24:28;26.30;99.90
1225;DHT22;602;48.000;7.840;2022-08-21T08:26:55;26.60;99.90
1225;DHT22;602;48.000;7.840;2022-08-21T08:29:23;26.90;99.90
1225;DHT22;602;48.000;7.840;2022-08-21T08:31:51;27.10;99.90
1225;DHT22;602;48.000;7.840;2022-08-21T08:34:18;27.40;99.90
1225;DHT22;602;48.000;7.840;2022-08-21T08:36:47;27.60;99.90
1225;DHT22;602;48.000;7.840;2022-08-21T08:39:14;27.50;99.90
1225;DHT22;602;48.000;7.840;2022-08-21T08:41:41;27.80;99.90
1225;DHT22;602;48.000;7.840;2022-08-21T08:44:09;28.00;99.90
1225;DHT22;602;48.000;7.840;2022-08-21T08:46:40;28.30;99.90
1225;DHT22;602;48.000;7.840;2022-08-21T08:49:13;28.40;99.90
1225;DHT22;602;48.000;7.840;2022-08-21T08:51:44;28.90;99.90
1225;DHT22;602;48.000;7.840;2022-08-21T08:54:17;29.00;99.90
1225;DHT22;602;48.000;7.840;2022-08-21T08:56:46;29.10;99.90
1225;DHT22;602;48.000;7.840;2022-08-21T08:59:16;29.30;99.90
1225;DHT22;602;48.000;7.840;2022-08-21T09:01:44;29.50;99.90
1225;DHT22;602;48.000;7.840;2022-08-21T09:04:13;29.80;99.90
1225;DHT22;602;48.000;7.840;2022-08-21T09:06:51;30.00;99.90
1225;DHT22;602;48.000;7.840;2022-08-21T09:09:29;30.10;99.90
1225;DHT22;602;48.000;7.840;2022-08-21T09:12:01;30.30;99.90
1225;DHT22;602;48.000;7.840;2022-08-21T09:14:38;30.60;99.90
1225;DHT22;602;48.000;7.840;2022-08-21T09:17:15;30.70;99.90
1225;DHT22;602;48.000;7.840;2022-08-21T09:19:57;30.70;99.90
1225;DHT22;602;48.000;7.840;2022-08-21T09:22:34;31.10;99.90
1225;DHT22;602;48.000;7.840;2022-08-21T09:25:10;31.10;99.90
1225;DHT22;602;48.000;7.840;2022-08-21T09:27:39;31.00;99.90
1225;DHT22;602;48.000;7.840;2022-08-21T09:30:07;31.30;99.90
1225;DHT22;602;48.000;7.840;2022-08-21T09:32:37;31.40;99.90
1225;DHT22;602;48.000;7.840;2022-08-21T09:35:09;31.50;99.90
1225;DHT22;602;48.000;7.840;2022-08-21T09:37:48;31.60;99.90
1225;DHT22;602;48.000;7.840;2022-08-21T09:40:29;31.80;99.90
1225;DHT22;602;48.000;7.840;2022-08-21T09:42:59;32.20;99.90
1225;DHT22;602;48.000;7.840;2022-08-21T09:45:27;32.10;99.90
1225;DHT22;602;48.000;7.840;2022-08-21T09:47:54;32.10;99.90
1225;DHT22;602;48.000;7.840;2022-08-21T09:50:26;32.20;99.90
1225;DHT22;602;48.000;7.840;2022-08-21T09:52:55;32.10;99.90
1225;DHT22;602;48.000;7.840;2022-08-21T09:55:31;32.30;99.90
1225;DHT22;602;48.000;7.840;2022-08-21T09:58:17;32.70;99.90
1225;DHT22;602;48.000;7.840;2022-08-21T10:00:45;32.60;99.90
1225;DHT22;602;48.000;7.840;2022-08-21T10:03:15;32.90;99.90
1225;DHT22;602;48.000;7.840;2022-08-21T10:05:54;33.10;99.90
1225;DHT22;602;48.000;7.840;2022-08-21T10:08:23;33.00;99.90
1225;DHT22;602;48.000;7.840;2022-08-21T10:10:54;33.10;99.90
1225;DHT22;602;48.000;7.840;2022-08-21T10:13:27;33.40;99.90
1225;DHT22;602;48.000;7.840;2022-08-21T10:16:05;33.60;99.90
1225;DHT22;602;48.000;7.840;2022-08-21T10:18:38;34.00;99.40
1225;DHT22;602;48.000;7.840;2022-08-21T10:21:15;34.00;99.90
1225;DHT22;602;48.000;7.840;2022-08-21T10:23:54;34.20;99.30
1225;DHT22;602;48.000;7.840;2022-08-21T10:26:37;34.40;98.80
1225;DHT22;602;48.000;7.840;2022-08-21T10:29:14;34.60;96.60
1225;DHT22;602;48.000;7.840;2022-08-21T10:31:52;34.30;96.00
1225;DHT22;602;48.000;7.840;2022-08-21T10:34:29;34.60;98.00
1225;DHT22;602;48.000;7.840;2022-08-21T10:37:17;34.60;95.90
1225;DHT22;602;48.000;7.840;2022-08-21T10:39:52;34.50;96.90
1225;DHT22;602;48.000;7.840;2022-08-21T10:42:29;34.70;96.30
1225;DHT22;602;48.000;7.840;2022-08-21T10:45:08;34.80;94.70
1225;DHT22;602;48.000;7.840;2022-08-21T10:47:42;35.10;93.60
1225;DHT22;602;48.000;7.840;2022-08-21T10:50:17;35.20;93.90
1225;DHT22;602;48.000;7.840;2022-08-21T10:53:02;35.20;94.00
1225;DHT22;602;48.000;7.840;2022-08-21T10:55:35;35.40;92.70
1225;DHT22;602;48.000;7.840;2022-08-21T10:58:08;35.40;93.00
1225;DHT22;602;48.000;7.840;2022-08-21T11:00:40;35.60;92.70
1225;DHT22;602;48.000;7.840;2022-08-21T11:03:12;35.60;92.30
1225;DHT22;602;48.000;7.840;2022-08-21T11:05:42;35.20;91.10
1225;DHT22;602;48.000;7.840;2022-08-21T11:08:17;35.60;91.40
1225;DHT22;602;48.000;7.840;2022-08-21T11:10:48;35.90;91.40
1225;DHT22;602;48.000;7.840;2022-08-21T11:13:21;36.10;91.50
1225;DHT22;602;48.000;7.840;2022-08-21T11:16:41;36.40;90.10
1225;DHT22;602;48.000;7.840;2022-08-21T11:19:13;36.70;88.20
1225;DHT22;602;48.000;7.840;2022-08-21T11:21:44;36.20;87.00
1225;DHT22;602;48.000;7.840;2022-08-21T11:24:29;36.00;88.50
1225;DHT22;602;48.000;7.840;2022-08-21T11:27:01;36.30;90.30
1225;DHT22;602;48.000;7.840;2022-08-21T11:29:32;36.30;88.10
1225;DHT22;602;48.000;7.840;2022-08-21T11:32:21;36.60;88.60
1225;DHT22;602;48.000;7.840;2022-08-21T11:34:56;37.10;86.40
1225;DHT22;602;48.000;7.840;2022-08-21T11:37:36;37.10;85.10
1225;DHT22;602;48.000;7.840;2022-08-21T11:40:27;37.20;83.70
1225;DHT22;602;48.000;7.840;2022-08-21T11:43:04;37.00;84.10
1225;DHT22;602;48.000;7.840;2022-08-21T11:45:38;36.90;83.20
1225;DHT22;602;48.000;7.840;2022-08-21T11:48:16;36.90;83.70
1225;DHT22;602;48.000;7.840;2022-08-21T11:50:49;36.20;82.40
1225;DHT22;602;48.000;7.840;2022-08-21T11:53:21;36.70;84.20
1225;DHT22;602;48.000;7.840;2022-08-21T11:55:54;36.90;83.50
1225;DHT22;602;48.000;7.840;2022-08-21T11:58:27;37.20;81.50
1225;DHT22;602;48.000;7.840;2022-08-21T12:00:58;37.10;81.20
1225;DHT22;602;48.000;7.840;2022-08-21T12:03:29;36.90;81.20
1225;DHT22;602;48.000;7.840;2022-08-21T12:05:58;36.20;78.80
1225;DHT22;602;48.000;7.840;2022-08-21T12:08:30;36.40;80.80
1225;DHT22;602;48.000;7.840;2022-08-21T12:11:03;36.90;82.00
1225;DHT22;602;48.000;7.840;2022-08-21T12:13:33;37.10;81.10
1225;DHT22;602;48.000;7.840;2022-08-21T12:16:08;37.20;82.30
1225;DHT22;602;48.000;7.840;2022-08-21T12:18:37;37.40;80.30
1225;DHT22;602;48.000;7.840;2022-08-21T12:21:17;36.90;78.90
1225;DHT22;602;48.000;7.840;2022-08-21T12:23:48;36.90;79.10
1225;DHT22;602;48.000;7.840;2022-08-21T12:26:24;36.90;79.40
1225;DHT22;602;48.000;7.840;2022-08-21T12:29:14;37.20;79.70
1225;DHT22;602;48.000;7.840;2022-08-21T12:31:55;37.40;79.10
1225;DHT22;602;48.000;7.840;2022-08-21T12:34:29;37.50;79.80
1225;DHT22;602;48.000;7.840;2022-08-21T12:37:00;37.20;78.20
1225;DHT22;602;48.000;7.840;2022-08-21T12:39:29;37.40;78.80
1225;DHT22;602;48.000;7.840;2022-08-21T12:42:00;37.40;79.70
1225;DHT22;602;48.000;7.840;2022-08-21T12:44:35;37.50;77.90
1225;DHT22;602;48.000;7.840;2022-08-21T12:47:05;37.70;77.50
1225;DHT22;602;48.000;7.840;2022-08-21T12:49:36;37.40;74.80
1225;DHT22;602;48.000;7.840;2022-08-21T12:52:10;37.60;75.60
1225;DHT22;602;48.000;7.840;2022-08-21T12:54:40;37.60;75.00
1225;DHT22;602;48.000;7.840;2022-08-21T12:57:09;37.30;76.00
1225;DHT22;602;48.000;7.840;2022-08-21T12:59:43;37.40;75.50
1225;DHT22;602;48.000;7.840;2022-08-21T13:02:15;37.30;74.50
1225;DHT22;602;48.000;7.840;2022-08-21T13:04:45;37.10;76.40
1225;DHT22;602;48.000;7.840;2022-08-21T13:07:19;37.00;75.90
1225;DHT22;602;48.000;7.840;2022-08-21T13:09:52;36.90;75.90
1225;DHT22;602;48.000;7.840;2022-08-21T13:12:20;36.90;76.30
1225;DHT22;602;48.000;7.840;2022-08-21T13:14:49;36.70;75.10
1225;DHT22;602;48.000;7.840;2022-08-21T13:17:18;36.50;76.20
1225;DHT22;602;48.000;7.840;2022-08-21T13:19:58;36.60;77.70
1225;DHT22;602;48.000;7.840;2022-08-21T13:22:26;36.60;75.80
1225;DHT22;602;48.000;7.840;2022-08-21T13:24:53;35.90;76.50
1225;DHT22;602;48.000;7.840;2022-08-21T13:27:24;36.00;76.70
1225;DHT22;602;48.000;7.840;2022-08-21T13:30:04;35.80;77.70
1225;DHT22;602;48.000;7.840;2022-08-21T13:32:35;35.90;77.00
1225;DHT22;602;48.000;7.840;2022-08-21T13:35:16;35.70;77.00
1225;DHT22;602;48.000;7.840;2022-08-21T13:37:46;35.10;77.60
1225;DHT22;602;48.000;7.840;2022-08-21T13:40:16;35.20;79.60
1225;DHT22;602;48.000;7.840;2022-08-21T13:42:45;35.00;79.00
1225;DHT22;602;48.000;7.840;2022-08-21T13:45:16;35.10;81.70
1225;DHT22;602;48.000;7.840;2022-08-21T13:47:45;35.00;79.00
1225;DHT22;602;48.000;7.840;2022-08-21T13:50:16;35.00;79.10
1225;DHT22;602;48.000;7.840;2022-08-21T13:52:55;34.80;79.00
1225;DHT22;602;48.000;7.840;2022-08-21T13:55:23;34.70;80.80
1225;DHT22;602;48.000;7.840;2022-08-21T13:57:59;34.60;80.30
1225;DHT22;602;48.000;7.840;2022-08-21T14:00:29;34.60;80.70
1225;DHT22;602;48.000;7.840;2022-08-21T14:03:04;34.20;81.40
1225;DHT22;602;48.000;7.840;2022-08-21T14:05:35;34.30;81.60
1225;DHT22;602;48.000;7.840;2022-08-21T14:08:06;34.10;81.10
1225;DHT22;602;48.000;7.840;2022-08-21T14:10:37;34.00;80.50
1225;DHT22;602;48.000;7.840;2022-08-21T14:13:14;34.00;79.40
1225;DHT22;602;48.000;7.840;2022-08-21T14:15:42;33.70;81.30
1225;DHT22;602;48.000;7.840;2022-08-21T14:18:13;33.70;81.20
1225;DHT22;602;48.000;7.840;2022-08-21T14:20:43;33.70;81.40
1225;DHT22;602;48.000;7.840;2022-08-21T14:23:10;33.70;83.30
1225;DHT22;602;48.000;7.840;2022-08-21T14:25:41;33.50;81.60
1225;DHT22;602;48.000;7.840;2022-08-21T14:28:15;33.50;81.80
1225;DHT22;602;48.000;7.840;2022-08-21T14:30:45;33.40;82.90
1225;DHT22;602;48.000;7.840;2022-08-21T14:33:16;33.30;81.70
1225;DHT22;602;48.000;7.840;2022-08-21T14:35:46;33.20;82.70
1225;DHT22;602;48.000;7.840;2022-08-21T14:38:14;33.00;83.30
1225;DHT22;602;48.000;7.840;2022-08-21T14:40:41;33.00;83.20
1225;DHT22;602;48.000;7.840;2022-08-21T14:43:09;32.80;81.50
1225;DHT22;602;48.000;7.840;2022-08-21T14:45:36;32.20;83.20
1225;DHT22;602;48.000;7.840;2022-08-21T14:48:07;31.70;83.80
1225;DHT22;602;48.000;7.840;2022-08-21T14:50:34;31.50;85.20
1225;DHT22;602;48.000;7.840;2022-08-21T14:53:02;31.70;85.70
1225;DHT22;602;48.000;7.840;2022-08-21T14:55:31;31.60;86.60
1225;DHT22;602;48.000;7.840;2022-08-21T14:58:20;31.50;86.40
1225;DHT22;602;48.000;7.840;2022-08-21T15:00:47;31.40;87.30
1225;DHT22;602;48.000;7.840;2022-08-21T15:03:14;31.40;86.20
1225;DHT22;602;48.000;7.840;2022-08-21T15:05:41;31.20;85.50
1225;DHT22;602;48.000;7.840;2022-08-21T15:08:09;31.20;86.50
1225;DHT22;602;48.000;7.840;2022-08-21T15:10:36;31.20;87.40
1225;DHT22;602;48.000;7.840;2022-08-21T15:13:03;31.20;87.80
1225;DHT22;602;48.000;7.840;2022-08-21T15:15:38;31.20;86.70
1225;DHT22;602;48.000;7.840;2022-08-21T15:18:06;31.20;86.70
1225;DHT22;602;48.000;7.840;2022-08-21T15:20:34;31.10;86.40
1225;DHT22;602;48.000;7.840;2022-08-21T15:23:01;31.00;86.40
1225;DHT22;602;48.000;7.840;2022-08-21T15:25:30;31.00;86.60
1225;DHT22;602;48.000;7.840;2022-08-21T15:27:57;31.00;86.50
1225;DHT22;602;48.000;7.840;2022-08-21T15:30:24;30.90;86.20
1225;DHT22;602;48.000;7.840;2022-08-21T15:32:51;30.70;85.90
1225;DHT22;602;48.000;7.840;2022-08-21T15:35:18;30.40;87.00
1225;DHT22;602;48.000;7.840;2022-08-21T15:37:45;30.40;87.90
1225;DHT22;602;48.000;7.840;2022-08-21T15:40:12;30.50;87.10
1225;DHT22;602;48.000;7.840;2022-08-21T15:42:41;30.50;88.80
1225;DHT22;602;48.000;7.840;2022-08-21T15:45:11;30.50;89.70
1225;DHT22;602;48.000;7.840;2022-08-21T15:47:43;30.50;89.40
1225;DHT22;602;48.000;7.840;2022-08-21T15:50:11;30.50;89.20
1225;DHT22;602;48.000;7.840;2022-08-21T15:52:39;30.30;90.20
1225;DHT22;602;48.000;7.840;2022-08-21T15:55:06;30.40;89.50
1225;DHT22;602;48.000;7.840;2022-08-21T15:57:34;30.40;90.10
1225;DHT22;602;48.000;7.840;2022-08-21T16:00:11;30.20;90.10
1225;DHT22;602;48.000;7.840;2022-08-21T16:02:42;30.20;90.30
1225;DHT22;602;48.000;7.840;2022-08-21T16:05:10;30.20;90.10
1225;DHT22;602;48.000;7.840;2022-08-21T16:07:38;30.20;90.50
1225;DHT22;602;48.000;7.840;2022-08-21T16:10:06;30.20;90.50
1225;DHT22;602;48.000;7.840;2022-08-21T16:12:37;30.10;90.60
1225;DHT22;602;48.000;7.840;2022-08-21T16:15:08;30.10;90.40
1225;DHT22;602;48.000;7.840;2022-08-21T16:17:36;30.00;90.10
1225;DHT22;602;48.000;7.840;2022-08-21T16:20:08;29.90;90.50
1225;DHT22;602;48.000;7.840;2022-08-21T16:22:35;29.70;90.50
1225;DHT22;602;48.000;7.840;2022-08-21T16:25:03;29.70;90.30
1225;DHT22;602;48.000;7.840;2022-08-21T16:27:30;29.60;91.00
1225;DHT22;602;48.000;7.840;2022-08-21T16:29:57;29.60;91.20
1225;DHT22;602;48.000;7.840;2022-08-21T16:32:25;29.50;91.50
1225;DHT22;602;48.000;7.840;2022-08-21T16:34:52;29.60;91.30